Details From KHWD - Hayward Executive
To KLKV - Lake Co
Flight Number -
Tags generated
Created
Modified
Stats Distance 324 nm / 600 km
Max Altitude 0 ft / 0 m
Waypoints 6
Social Downloads 9
Likes 0
Share VATSIM

Download

Looking for another format? Having issues loading an existing format? Contact us
Advertisement - Login to hide

Notes

None

Route

KHWD COLOM J32 FMG J5 HARTT KLKV

ID Type Via Altitude Latitude Longitude Leg Dist Tot Dist Heading (true) Name
O KHWD APT - 0 ft / 0 m 37.65925˚ -122.12193˚ - 0 nm - Hayward Executive
COLOM FIX - 0 ft / 0 m 38.83897˚ -120.87002˚ 92 nm 92 nm 39° / 40° -
FMG VOR J32 (AWY-HI) 0 ft / 0 m 39.53128˚ -119.65608˚ 70 nm 162 nm 53° / 54° MUSTANG VORTAC
PYRAM FIX J5 (AWY-HI) 0 ft / 0 m 39.89328˚ -119.75600˚ 22 nm 184 nm 348° / 348° -
HARTT FIX J5 (AWY-HI) 0 ft / 0 m 40.83587˚ -120.02125˚ 57 nm 242 nm 348° / 348° -
O KLKV APT - 0 ft / 0 m 42.16110˚ -120.39908˚ 81 nm 323 nm 348° / 348° Lake Co

Altitude Profile

Advertisement - Login to hide

Weather


0- 5 10 15 20 25 30 35+ Temperature / ° C

Clouds and Precipitation
Forecast for 2018-05-23 00:00 UTC. Updated an hour ago

Ground ~20,000 ft ~40,000 ft Winds

KHWD

Details ICAO KHWD (HWD)
Name Hayward Executive
Region United States
Timezone America/Los_Angeles (UTC-7.0)
Stats Elevation 52 ft / 16 m (AMSL)
Location 37.659252° -122.121935°
Runways 2
Magnetic Variation 13.392° E

METAR

KHWD 222354Z 28013G18KT 10SM BKN010 OVC015 16/11 A2990 RMK AO2 CIG 008V012 SLP134 T01560111 10172 20139 56007

Decode

TAF

Not found

Departure Runways

ID Width Length Bearing (true) Bearing (mag) Surface Threshold Offset Overrun Length
10L 75 ft / 23 m 3,104 ft / 946 m 119.95° 106.56° Asphalt 0 ft / 0 m 0 ft / 0 m
10R 151 ft / 46 m 5,688 ft / 1,734 m 119.95° 106.56° Asphalt 817 ft / 249 m 0 ft / 0 m
28L 151 ft / 46 m 5,688 ft / 1,734 m 299.96° 286.57° Asphalt 676 ft / 206 m 0 ft / 0 m
28R 75 ft / 23 m 3,104 ft / 946 m 299.96° 286.57° Asphalt 0 ft / 0 m 0 ft / 0 m

KLKV

Details ICAO KLKV
Name Lake Co
Region United States
Timezone America/Los_Angeles (UTC-7.0)
Stats Elevation 4,733 ft / 1,443 m (AMSL)
Location 42.161097° -120.399080°
Runways 1
Magnetic Variation 14.051° E

METAR

KLKV 230005Z AUTO 10012KT 10SM FEW032 SCT050 BKN095 17/08 A2992 RMK AO2 TSE02

Decode

TAF

Not found

Destination Runways

ID Width Length Bearing (true) Bearing (mag) Surface Threshold Offset Overrun Length
16 100 ft / 30 m 5,312 ft / 1,619 m 180.26° 166.21° Asphalt 0 ft / 0 m 0 ft / 0 m
34 100 ft / 30 m 5,312 ft / 1,619 m 0.26° 346.21° Asphalt 0 ft / 0 m 0 ft / 0 m